Time;durP1;ratioP1;P1;durP2;ratioP2;P2;SDS_P1;SDS_P2;PMS_P1;PMS_P2;Temp;Humidity;BMP_temperature;BMP_pressure;BME280_temperature;BME280_humidity;BME280_pressure;Samples;Min_cycle;Max_cycle;Signal;HPM_P1;HPM_P2
2022/08/19 00:01:57;;;;;;;0.10;0.10;;;;;;;;;;5031915;28;20072;-67
2022/08/19 00:04:26;;;;;;;0.10;0.10;;;;;;;;;;5032008;28;20041;-67
2022/08/19 00:06:53;;;;;;;0.32;0.10;;;;;;;;;;5031753;28;20049;-67
2022/08/19 00:09:21;;;;;;;0.10;0.10;;;;;;;;;;5031697;28;20080;-66
2022/08/19 00:11:48;;;;;;;0.65;0.25;;;;;;;;;;5031911;28;20045;-67
2022/08/19 00:14:16;;;;;;;0.15;0.10;;;;;;;;;;5031905;28;20053;-67
2022/08/19 00:16:44;;;;;;;0.10;0.10;;;;;;;;;;5030294;28;20085;-66
2022/08/19 00:19:11;;;;;;;0.17;0.17;;;;;;;;;;5034210;28;20081;-66
2022/08/19 00:21:39;;;;;;;0.25;0.25;;;;;;;;;;5038379;28;20065;-67
2022/08/19 00:24:07;;;;;;;0.20;0.20;;;;;;;;;;5038388;28;20433;-67
2022/08/19 00:26:34;;;;;;;0.20;0.20;;;;;;;;;;5038536;28;20060;-67
2022/08/19 00:29:01;;;;;;;0.20;0.20;;;;;;;;;;5037482;28;20072;-66
2022/08/19 00:31:27;;;;;;;0.43;0.17;;;;;;;;;;5038183;28;20049;-67
2022/08/19 00:33:54;;;;;;;1.00;0.32;;;;;;;;;;5037763;28;20081;-67
2022/08/19 00:36:20;;;;;;;0.15;0.10;;;;;;;;;;5038050;28;20077;-67
2022/08/19 00:38:47;;;;;;;0.10;0.10;;;;;;;;;;5038246;28;20139;-66
2022/08/19 00:41:14;;;;;;;0.70;0.10;;;;;;;;;;5036832;28;20057;-67
2022/08/19 00:43:41;;;;;;;0.90;0.10;;;;;;;;;;5037232;28;20443;-66
2022/08/19 00:46:07;;;;;;;1.48;0.13;;;;;;;;;;5037824;28;20100;-67
2022/08/19 00:48:35;;;;;;;0.00;0.00;;;;;;;;;;5037885;28;20057;-67
2022/08/19 00:51:03;;;;;;;0.05;0.05;;;;;;;;;;5036639;28;20318;-66
2022/08/19 00:53:31;;;;;;;0.40;0.10;;;;;;;;;;5037675;28;20111;-66
2022/08/19 00:55:59;;;;;;;0.20;0.10;;;;;;;;;;5038114;28;20049;-67
2022/08/19 00:58:28;;;;;;;0.28;0.10;;;;;;;;;;5037928;28;20088;-67
2022/08/19 01:00:54;;;;;;;0.22;0.08;;;;;;;;;;5037898;28;20053;-67
2022/08/19 01:03:21;;;;;;;0.17;0.17;;;;;;;;;;5037830;28;20077;-66
2022/08/19 01:05:50;;;;;;;0.00;0.00;;;;;;;;;;5038049;28;20068;-67
2022/08/19 01:08:18;;;;;;;0.82;0.10;;;;;;;;;;5037680;28;20474;-67
2022/08/19 01:10:46;;;;;;;0.85;0.10;;;;;;;;;;5037686;28;20112;-67
2022/08/19 01:13:17;;;;;;;1.10;0.10;;;;;;;;;;5037669;28;20045;-67
2022/08/19 01:15:45;;;;;;;0.60;0.10;;;;;;;;;;5037742;28;20081;-67
2022/08/19 01:18:13;;;;;;;0.45;0.10;;;;;;;;;;5037524;28;20473;-67
2022/08/19 01:20:40;;;;;;;0.75;0.30;;;;;;;;;;5037542;28;20493;-66
2022/08/19 01:23:06;;;;;;;0.90;0.40;;;;;;;;;;5037558;28;20076;-66
2022/08/19 01:25:43;;;;;;;1.92;0.50;;;;;;;;;;5037840;28;20065;-67
2022/08/19 01:28:10;;;;;;;;;;;;;;;;;;5038292;28;20050;-66
2022/08/19 01:30:37;;;;;;;1.10;0.20;;;;;;;;;;5035387;28;20332;-67
2022/08/19 01:33:05;;;;;;;1.45;0.30;;;;;;;;;;5034360;28;20520;-66
2022/08/19 01:35:32;;;;;;;0.20;0.17;;;;;;;;;;5034764;28;20049;-66
2022/08/19 01:37:59;;;;;;;1.60;0.20;;;;;;;;;;5034543;28;20057;-66
2022/08/19 01:40:29;;;;;;;0.47;0.20;;;;;;;;;;5034204;28;20092;-66
2022/08/19 01:42:55;;;;;;;0.28;0.15;;;;;;;;;;5034574;28;20092;-66
2022/08/19 01:45:23;;;;;;;1.23;0.20;;;;;;;;;;5032972;28;20080;-66
2022/08/19 01:47:50;;;;;;;2.85;0.30;;;;;;;;;;5034514;28;20041;-66
2022/08/19 01:50:28;;;;;;;4.82;0.57;;;;;;;;;;5034362;28;20042;-66
2022/08/19 01:52:54;;;;;;;1.38;0.20;;;;;;;;;;5034420;28;20057;-67
2022/08/19 01:55:33;;;;;;;1.60;0.30;;;;;;;;;;5034024;28;20061;-67
2022/08/19 01:58:01;;;;;;;1.58;0.20;;;;;;;;;;5034076;28;20461;-66
2022/08/19 02:00:29;;;;;;;1.50;0.20;;;;;;;;;;5033654;28;20045;-66
2022/08/19 02:02:56;;;;;;;0.40;0.20;;;;;;;;;;5034151;28;20103;-67
2022/08/19 02:05:23;;;;;;;1.13;0.30;;;;;;;;;;5034156;28;20049;-66
2022/08/19 02:07:49;;;;;;;2.90;0.40;;;;;;;;;;5032813;28;20045;-66
2022/08/19 02:10:18;;;;;;;2.30;0.70;;;;;;;;;;5033603;28;20461;-66
2022/08/19 02:12:44;;;;;;;2.05;0.50;;;;;;;;;;5034027;28;20099;-67
2022/08/19 02:15:13;;;;;;;2.45;0.50;;;;;;;;;;5033619;28;20096;-67
2022/08/19 02:17:39;;;;;;;1.95;0.63;;;;;;;;;;5033912;28;20107;-66
2022/08/19 02:20:06;;;;;;;1.33;0.40;;;;;;;;;;5033547;28;20076;-66
2022/08/19 02:22:33;;;;;;;1.75;0.47;;;;;;;;;;5033560;28;20052;-66
2022/08/19 02:24:59;;;;;;;1.77;0.80;;;;;;;;;;5033802;28;20080;-67
2022/08/19 02:27:26;;;;;;;2.60;0.57;;;;;;;;;;5033393;28;20095;-67
2022/08/19 02:29:53;;;;;;;3.77;0.70;;;;;;;;;;5033470;28;20509;-66
2022/08/19 02:32:19;;;;;;;2.10;0.47;;;;;;;;;;5033507;28;20053;-66
2022/08/19 02:34:46;;;;;;;3.10;0.70;;;;;;;;;;5033449;28;20049;-66
2022/08/19 02:40:00;;;;;;;2.80;0.82;;;;;;;;;;5033261;28;20543;-67
2022/08/19 02:42:28;;;;;;;2.88;1.17;;;;;;;;;;5033070;28;20041;-66
2022/08/19 02:44:55;;;;;;;1.88;0.68;;;;;;;;;;5033178;28;20053;-66
2022/08/19 02:47:22;;;;;;;4.72;0.85;;;;;;;;;;5033128;28;20056;-66
2022/08/19 02:49:51;;;;;;;3.90;1.02;;;;;;;;;;5032870;28;20113;-66
2022/08/19 02:52:17;;;;;;;2.53;0.77;;;;;;;;;;5033207;28;20057;-66
2022/08/19 02:54:44;;;;;;;3.55;0.88;;;;;;;;;;5033176;28;20049;-66
2022/08/19 02:57:10;;;;;;;4.07;1.08;;;;;;;;;;5031909;28;20049;-66
2022/08/19 02:59:37;;;;;;;5.18;1.13;;;;;;;;;;5032853;28;20045;-66
2022/08/19 03:02:03;;;;;;;5.35;1.00;;;;;;;;;;5032330;28;20478;-66
2022/08/19 03:04:30;;;;;;;3.60;0.95;;;;;;;;;;5032575;28;20498;-66
2022/08/19 03:06:56;;;;;;;2.30;0.90;;;;;;;;;;5032969;28;20073;-66
2022/08/19 03:09:36;;;;;;;4.50;1.30;;;;;;;;;;5032936;28;20049;-67
2022/08/19 03:12:03;;;;;;;3.17;1.08;;;;;;;;;;5033063;28;20095;-67
2022/08/19 03:14:30;;;;;;;5.30;1.17;;;;;;;;;;5032522;28;20045;-66
2022/08/19 03:16:57;;;;;;;5.03;1.20;;;;;;;;;;5032471;28;20050;-67
2022/08/19 03:19:24;;;;;;;5.33;1.20;;;;;;;;;;5032458;28;20057;-67
2022/08/19 03:21:51;;;;;;;6.72;0.85;;;;;;;;;;5032515;28;20303;-66
2022/08/19 03:24:18;;;;;;;3.75;1.17;;;;;;;;;;5032680;28;20045;-66
2022/08/19 03:26:46;;;;;;;2.47;1.15;;;;;;;;;;5032355;28;20050;-66
2022/08/19 03:29:13;;;;;;;7.55;1.30;;;;;;;;;;5032515;28;20080;-66
2022/08/19 03:31:55;;;;;;;5.53;1.45;;;;;;;;;;5032579;28;20092;-67
2022/08/19 03:34:26;;;;;;;6.57;1.88;;;;;;;;;;5032319;28;20509;-67
2022/08/19 03:36:54;;;;;;;4.00;1.27;;;;;;;;;;5032420;28;20124;-66
2022/08/19 03:39:21;;;;;;;7.53;1.77;;;;;;;;;;5032275;28;20387;-67
2022/08/19 03:41:51;;;;;;;6.43;1.73;;;;;;;;;;5030718;28;20497;-67
2022/08/19 03:44:38;;;;;;;7.18;1.85;;;;;;;;;;5032211;28;20054;-67
2022/08/19 03:47:05;;;;;;;5.55;1.80;;;;;;;;;;5032049;28;20081;-67
2022/08/19 03:49:33;;;;;;;8.68;2.13;;;;;;;;;;5031972;28;20069;-67
2022/08/19 03:52:04;;;;;;;10.25;2.22;;;;;;;;;;5032070;28;20497;-66
2022/08/19 03:54:31;;;;;;;9.23;2.03;;;;;;;;;;5031466;28;20455;-67
2022/08/19 03:56:57;;;;;;;9.23;2.05;;;;;;;;;;5030813;28;20088;-66
2022/08/19 03:59:26;;;;;;;11.95;2.38;;;;;;;;;;5031981;28;20080;-67
2022/08/19 04:01:56;;;;;;;8.55;2.35;;;;;;;;;;5031694;28;20532;-67
2022/08/19 04:04:23;;;;;;;7.88;2.33;;;;;;;;;;5031944;28;20053;-67
2022/08/19 04:06:54;;;;;;;10.70;2.17;;;;;;;;;;5031930;28;20046;-66
2022/08/19 04:09:21;;;;;;;9.00;2.00;;;;;;;;;;5031889;28;20045;-66
2022/08/19 04:11:49;;;;;;;10.48;2.15;;;;;;;;;;5032001;28;20073;-67
2022/08/19 04:14:17;;;;;;;9.98;2.40;;;;;;;;;;5031789;28;20551;-66
2022/08/19 04:16:44;;;;;;;5.68;1.45;;;;;;;;;;5031620;28;20460;-67
2022/08/19 04:19:11;;;;;;;11.68;1.92;;;;;;;;;;5032048;28;20107;-66
2022/08/19 04:21:37;;;;;;;9.47;2.43;;;;;;;;;;5031361;28;20501;-66
2022/08/19 04:24:06;;;;;;;7.03;1.80;;;;;;;;;;5031840;28;20073;-66
2022/08/19 04:26:34;;;;;;;6.85;1.90;;;;;;;;;;5031650;28;20084;-66
2022/08/19 04:29:00;;;;;;;;;;;;;;;;;;5031992;28;20073;-67
2022/08/19 04:31:28;;;;;;;13.20;2.40;;;;;;;;;;5031455;28;20335;-66
2022/08/19 04:33:56;;;;;;;11.30;2.40;;;;;;;;;;5031640;28;20061;-67
2022/08/19 04:36:24;;;;;;;8.82;1.98;;;;;;;;;;5031753;28;20084;-66
2022/08/19 04:38:53;;;;;;;10.43;2.00;;;;;;;;;;5031813;28;20054;-67
2022/08/19 04:44:04;;;;;;;8.30;1.90;;;;;;;;;;5031378;28;20515;-66
2022/08/19 04:46:31;;;;;;;7.88;2.13;;;;;;;;;;5031569;28;20473;-66
2022/08/19 04:49:07;;;;;;;8.93;2.30;;;;;;;;;;5031924;28;20056;-66
2022/08/19 04:51:40;;;;;;;12.40;2.67;;;;;;;;;;5031648;28;20049;-67
2022/08/19 04:54:06;;;;;;;10.70;2.10;;;;;;;;;;5031305;28;20088;-66
2022/08/19 04:56:33;;;;;;;9.98;2.00;;;;;;;;;;5031517;28;20076;-66
2022/08/19 04:59:03;;;;;;;12.10;2.47;;;;;;;;;;5031541;28;20107;-67
2022/08/19 05:01:31;;;;;;;9.85;2.22;;;;;;;;;;5031207;28;20080;-66
2022/08/19 05:04:03;;;;;;;12.00;2.38;;;;;;;;;;5031378;28;20555;-66
2022/08/19 05:06:30;;;;;;;13.80;2.42;;;;;;;;;;5032964;28;20119;-66
2022/08/19 05:08:57;;;;;;;8.20;2.03;;;;;;;;;;5035229;28;20073;-66
2022/08/19 05:11:28;;;;;;;6.70;2.03;;;;;;;;;;5034757;28;20528;-67
2022/08/19 05:13:55;;;;;;;10.15;2.38;;;;;;;;;;5035171;28;20376;-67
2022/08/19 05:16:23;;;;;;;11.52;2.38;;;;;;;;;;5034661;28;20095;-67
2022/08/19 05:24:20;;;;;;;9.60;1.90;;;;;;;;;;5034971;28;20049;-66
2022/08/19 05:26:48;;;;;;;9.10;2.00;;;;;;;;;;5034531;28;20068;-66
2022/08/19 05:29:16;;;;;;;11.70;2.35;;;;;;;;;;5033591;28;20057;-66
2022/08/19 05:31:43;;;;;;;10.65;2.85;;;;;;;;;;5034829;28;20049;-66
2022/08/19 05:34:10;;;;;;;14.27;2.63;;;;;;;;;;5034625;28;20049;-66
2022/08/19 05:36:45;;;;;;;12.23;2.47;;;;;;;;;;5034776;28;20355;-66
2022/08/19 05:39:15;;;;;;;11.25;2.40;;;;;;;;;;5034512;28;20053;-67
2022/08/19 05:41:46;;;;;;;10.52;2.15;;;;;;;;;;5034557;28;20115;-66
2022/08/19 05:44:13;;;;;;;16.00;3.05;;;;;;;;;;5034573;28;20041;-66
2022/08/19 05:46:42;;;;;;;14.13;2.60;;;;;;;;;;5034250;28;20053;-66
2022/08/19 05:49:09;;;;;;;10.38;2.72;;;;;;;;;;5034329;28;20045;-66
2022/08/19 05:51:37;;;;;;;11.40;2.20;;;;;;;;;;5032902;28;20528;-66
2022/08/19 05:54:04;;;;;;;12.63;2.63;;;;;;;;;;5034303;28;20058;-66
2022/08/19 05:56:31;;;;;;;10.75;2.15;;;;;;;;;;5034308;28;20084;-67
2022/08/19 05:58:58;;;;;;;12.63;2.33;;;;;;;;;;5034233;28;20045;-67
2022/08/19 06:01:25;;;;;;;15.00;2.85;;;;;;;;;;5033848;28;20183;-67
2022/08/19 06:03:52;;;;;;;9.90;2.03;;;;;;;;;;5034260;28;20049;-67
2022/08/19 06:06:19;;;;;;;12.35;2.55;;;;;;;;;;5034065;28;20049;-67
2022/08/19 06:08:50;;;;;;;9.85;2.30;;;;;;;;;;5033857;28;20067;-67
2022/08/19 06:11:24;;;;;;;9.32;2.45;;;;;;;;;;5034072;28;20053;-67
2022/08/19 06:13:52;;;;;;;7.43;2.38;;;;;;;;;;5033972;28;20049;-67
2022/08/19 06:16:26;;;;;;;9.80;2.50;;;;;;;;;;5033241;28;20067;-67
2022/08/19 06:18:56;;;;;;;5.93;2.38;;;;;;;;;;5033638;28;20050;-67
2022/08/19 06:21:23;;;;;;;10.35;2.85;;;;;;;;;;5033735;28;20057;-67
2022/08/19 06:23:51;;;;;;;5.68;1.92;;;;;;;;;;5033498;28;20077;-67
2022/08/19 06:26:18;;;;;;;;;;;;;;;;;;5033375;28;20046;-67
2022/08/19 06:28:46;;;;;;;10.27;2.60;;;;;;;;;;5033381;28;19968;-68
2022/08/19 06:31:16;;;;;;;11.70;2.40;;;;;;;;;;5033417;28;20049;-68
2022/08/19 06:33:44;;;;;;;14.65;2.95;;;;;;;;;;5033421;28;20080;-68
2022/08/19 06:36:18;;;;;;;13.15;2.78;;;;;;;;;;5033662;28;20571;-68
2022/08/19 06:38:44;;;;;;;7.15;2.50;;;;;;;;;;5033526;28;20134;-68
2022/08/19 06:41:11;;;;;;;;;;;;;;;;;;5033578;28;20049;-67
2022/08/19 06:43:38;;;;;;;9.30;2.43;;;;;;;;;;5031871;28;19921;-67
2022/08/19 06:46:11;;;;;;;8.32;2.60;;;;;;;;;;5031818;28;20100;-67
2022/08/19 06:48:40;;;;;;;8.48;2.33;;;;;;;;;;5031260;28;20144;-66
2022/08/19 06:51:12;;;;;;;10.57;2.50;;;;;;;;;;5030876;28;20057;-67
2022/08/19 06:53:40;;;;;;;8.93;2.50;;;;;;;;;;5033015;28;20045;-66
2022/08/19 06:56:07;;;;;;;6.47;2.08;;;;;;;;;;5032529;28;20045;-66
2022/08/19 06:58:33;;;;;;;7.60;2.30;;;;;;;;;;5032934;28;20088;-66
2022/08/19 07:01:02;;;;;;;8.07;2.22;;;;;;;;;;5031992;28;20084;-66
2022/08/19 07:03:35;;;;;;;10.10;2.15;;;;;;;;;;5032275;28;20052;-66
2022/08/19 07:06:11;;;;;;;8.60;2.03;;;;;;;;;;5032250;28;20500;-67
2022/08/19 07:08:58;;;;;;;5.72;1.73;;;;;;;;;;5019999;28;20038;-66
2022/08/19 07:11:24;;;;;;;4.35;1.60;;;;;;;;;;5031902;28;20460;-67
2022/08/19 07:13:51;;;;;;;6.85;2.08;;;;;;;;;;5031967;28;20053;-67
2022/08/19 07:16:20;;;;;;;8.80;1.70;;;;;;;;;;5031093;28;20058;-66
2022/08/19 07:18:56;;;;;;;5.63;1.50;;;;;;;;;;5031445;28;20063;-67
2022/08/19 07:21:26;;;;;;;6.95;1.50;;;;;;;;;;5032315;28;20067;-66
2022/08/19 07:23:55;;;;;;;5.72;1.48;;;;;;;;;;5033050;28;20057;-66
2022/08/19 07:26:26;;;;;;;6.22;1.42;;;;;;;;;;5032519;28;20556;-66
2022/08/19 07:28:54;;;;;;;6.70;1.73;;;;;;;;;;5029907;28;20486;-66
2022/08/19 07:31:22;;;;;;;7.15;1.92;;;;;;;;;;5032508;28;20049;-67
2022/08/19 07:33:50;;;;;;;5.82;1.52;;;;;;;;;;5032221;28;20111;-67
2022/08/19 07:36:21;;;;;;;7.05;1.67;;;;;;;;;;5032257;28;20076;-67
2022/08/19 07:38:51;;;;;;;7.13;1.50;;;;;;;;;;5032800;28;20490;-66
2022/08/19 07:41:19;;;;;;;6.40;1.50;;;;;;;;;;5032446;28;20037;-66
2022/08/19 07:43:46;;;;;;;6.25;1.40;;;;;;;;;;5032070;28;20049;-66
2022/08/19 07:46:13;;;;;;;8.48;1.67;;;;;;;;;;5031960;28;20390;-67
2022/08/19 07:48:41;;;;;;;6.88;1.77;;;;;;;;;;5031997;28;20489;-67
2022/08/19 07:51:09;;;;;;;7.20;1.52;;;;;;;;;;5032212;28;20084;-66
2022/08/19 07:53:39;;;;;;;7.53;1.55;;;;;;;;;;5032525;28;20118;-67
2022/08/19 07:56:06;;;;;;;6.45;1.30;;;;;;;;;;5031990;28;20115;-67
2022/08/19 07:58:33;;;;;;;4.20;1.00;;;;;;;;;;5032069;28;20049;-67
2022/08/19 08:01:00;;;;;;;5.47;1.35;;;;;;;;;;5031934;28;20073;-67
2022/08/19 08:09:11;;;;;;;4.63;1.27;;;;;;;;;;5031979;28;20091;-67
2022/08/19 08:11:37;;;;;;;5.07;1.30;;;;;;;;;;5031620;28;20441;-67
2022/08/19 08:14:04;;;;;;;5.28;1.20;;;;;;;;;;5031682;28;20073;-67
2022/08/19 08:16:33;;;;;;;5.10;1.52;;;;;;;;;;5031445;28;20103;-67
2022/08/19 08:19:00;;;;;;;4.93;1.50;;;;;;;;;;5031587;28;20100;-67
2022/08/19 08:21:26;;;;;;;6.68;1.42;;;;;;;;;;5030375;28;20046;-67
2022/08/19 08:23:55;;;;;;;4.78;1.55;;;;;;;;;;5031815;28;20049;-67
2022/08/19 08:26:22;;;;;;;4.95;1.38;;;;;;;;;;5031741;28;20053;-67
2022/08/19 08:28:49;;;;;;;8.00;1.23;;;;;;;;;;5031623;28;20091;-67
2022/08/19 08:31:18;;;;;;;5.63;1.27;;;;;;;;;;5031714;28;20508;-67
2022/08/19 08:33:46;;;;;;;4.55;1.17;;;;;;;;;;5031394;28;20057;-67
2022/08/19 08:36:15;;;;;;;4.63;1.17;;;;;;;;;;5031498;28;20045;-67
2022/08/19 08:38:45;;;;;;;4.82;1.70;;;;;;;;;;5031331;28;20505;-67
2022/08/19 08:41:12;;;;;;;4.85;1.30;;;;;;;;;;5034474;28;20049;-67
2022/08/19 08:43:43;;;;;;;6.68;1.48;;;;;;;;;;5035464;28;20045;-67
2022/08/19 08:46:16;;;;;;;6.43;1.67;;;;;;;;;;5035300;28;20053;-66
2022/08/19 08:49:00;;;;;;;3.53;1.27;;;;;;;;;;5035672;28;20049;-67
2022/08/19 08:51:28;;;;;;;5.47;1.35;;;;;;;;;;5035539;28;20057;-67
2022/08/19 08:54:01;;;;;;;7.20;1.50;;;;;;;;;;5034345;28;20057;-67
2022/08/19 08:56:28;;;;;;;4.88;1.15;;;;;;;;;;5035479;28;20092;-67
2022/08/19 08:59:07;;;;;;;4.68;0.93;;;;;;;;;;5035288;28;20057;-67
2022/08/19 09:01:34;;;;;;;4.82;1.30;;;;;;;;;;5035049;28;20129;-67
2022/08/19 09:04:03;;;;;;;4.18;1.02;;;;;;;;;;5035073;28;20456;-67
2022/08/19 09:06:36;;;;;;;5.32;1.45;;;;;;;;;;5034871;28;20874;-67
2022/08/19 09:09:06;;;;;;;;;;;;;;;;;;5035688;28;20133;-68
2022/08/19 09:11:37;;;;;;;4.95;1.25;;;;;;;;;;5034836;28;19924;-67
2022/08/19 09:14:10;;;;;;;5.15;1.38;;;;;;;;;;5035191;28;20049;-68
2022/08/19 09:16:57;;;;;;;7.75;1.52;;;;;;;;;;5033670;28;20064;-68
2022/08/19 09:19:23;;;;;;;4.80;1.35;;;;;;;;;;5034687;28;20133;-67
2022/08/19 09:21:50;;;;;;;;;;;;;;;;;;5035224;28;20409;-68
2022/08/19 09:24:16;;;;;;;4.75;1.40;;;;;;;;;;5034546;28;19929;-67
2022/08/19 09:26:43;;;;;;;4.40;1.23;;;;;;;;;;5034455;28;20489;-67
2022/08/19 09:29:18;;;;;;;3.72;1.38;;;;;;;;;;5034870;28;20056;-67
2022/08/19 09:31:49;;;;;;;6.50;1.77;;;;;;;;;;5034913;28;20099;-67
2022/08/19 09:34:15;;;;;;;5.13;0.90;;;;;;;;;;5034719;28;20081;-67
2022/08/19 09:36:53;;;;;;;3.53;1.33;;;;;;;;;;5034695;28;20140;-67
2022/08/19 09:39:20;;;;;;;3.22;0.93;;;;;;;;;;5034394;28;20045;-67
2022/08/19 09:41:49;;;;;;;3.50;1.50;;;;;;;;;;5034547;28;20065;-68
2022/08/19 09:44:15;;;;;;;5.30;1.33;;;;;;;;;;5034383;28;20053;-67
2022/08/19 09:46:43;;;;;;;3.75;1.33;;;;;;;;;;5034162;28;20394;-68
2022/08/19 09:49:10;;;;;;;5.32;1.02;;;;;;;;;;5034463;28;20037;-67
2022/08/19 09:51:38;;;;;;;4.85;1.25;;;;;;;;;;5033586;28;20084;-67
2022/08/19 09:54:06;;;;;;;4.88;1.55;;;;;;;;;;5034362;28;20163;-67
2022/08/19 09:56:36;;;;;;;5.80;1.58;;;;;;;;;;5034568;28;20152;-67
2022/08/19 09:59:05;;;;;;;4.28;1.58;;;;;;;;;;5034104;28;20053;-67
2022/08/19 10:01:32;;;;;;;3.05;1.00;;;;;;;;;;5034207;28;20115;-67
2022/08/19 10:04:00;;;;;;;4.60;1.30;;;;;;;;;;5034159;28;20491;-67
2022/08/19 10:06:29;;;;;;;4.65;1.20;;;;;;;;;;5033752;28;20543;-67
2022/08/19 10:09:12;;;;;;;5.00;1.52;;;;;;;;;;5033935;28;20056;-67
2022/08/19 10:11:40;;;;;;;5.05;1.33;;;;;;;;;;5033986;28;20049;-67
2022/08/19 10:14:22;;;;;;;6.63;1.50;;;;;;;;;;5033978;28;20050;-67
2022/08/19 10:16:49;;;;;;;3.88;1.13;;;;;;;;;;5033613;28;20497;-67
2022/08/19 10:19:15;;;;;;;5.25;1.73;;;;;;;;;;5032659;28;20053;-67
2022/08/19 10:21:51;;;;;;;5.07;1.70;;;;;;;;;;5033433;28;20049;-67
2022/08/19 10:24:23;;;;;;;8.00;1.60;;;;;;;;;;5033815;28;20132;-67
2022/08/19 10:26:50;;;;;;;5.15;1.30;;;;;;;;;;5033755;28;20131;-67
2022/08/19 10:29:24;;;;;;;6.53;1.48;;;;;;;;;;5033472;28;20060;-67
2022/08/19 10:31:59;;;;;;;4.68;1.50;;;;;;;;;;5033709;28;20133;-67
2022/08/19 10:34:29;;;;;;;5.50;1.60;;;;;;;;;;5033335;28;20453;-66
2022/08/19 10:36:55;;;;;;;;;;;;;;;;;;5034015;28;20050;-67
2022/08/19 10:39:29;;;;;;;5.82;1.60;;;;;;;;;;5033637;28;20332;-66
2022/08/19 10:41:56;;;;;;;7.68;1.60;;;;;;;;;;5033440;28;20053;-67
2022/08/19 10:44:23;;;;;;;9.57;1.85;;;;;;;;;;5033499;28;20038;-67
2022/08/19 10:46:58;;;;;;;7.10;2.00;;;;;;;;;;5033228;28;20128;-67
2022/08/19 10:49:25;;;;;;;8.05;1.95;;;;;;;;;;5033281;28;20045;-67
2022/08/19 10:57:34;;;;;;;6.32;1.80;;;;;;;;;;5033170;28;20088;-67
2022/08/19 11:00:22;;;;;;;6.40;1.95;;;;;;;;;;5032629;28;20056;-66
2022/08/19 11:02:50;;;;;;;7.82;2.17;;;;;;;;;;5032699;28;20386;-67
2022/08/19 11:05:17;;;;;;;;;;;;;;;;;;5033187;28;20049;-67
2022/08/19 11:07:44;;;;;;;4.95;1.65;;;;;;;;;;5032705;28;19951;-67
2022/08/19 11:10:13;;;;;;;5.30;1.80;;;;;;;;;;5032545;28;20560;-68
2022/08/19 11:12:46;;;;;;;5.38;1.98;;;;;;;;;;5032671;28;20560;-67
2022/08/19 11:15:12;;;;;;;6.03;1.90;;;;;;;;;;5032504;28;20120;-67
2022/08/19 11:17:43;;;;;;;4.30;1.27;;;;;;;;;;5032525;28;20417;-66
2022/08/19 11:20:13;;;;;;;4.53;1.50;;;;;;;;;;5032729;28;20145;-67
2022/08/19 11:22:40;;;;;;;3.60;1.40;;;;;;;;;;5031520;28;20045;-67
2022/08/19 11:25:08;;;;;;;6.63;1.48;;;;;;;;;;5032714;28;20055;-67
2022/08/19 11:27:39;;;;;;;3.83;1.27;;;;;;;;;;5032625;28;20077;-67
2022/08/19 11:30:07;;;;;;;4.35;1.23;;;;;;;;;;5032520;28;20077;-67
2022/08/19 11:32:38;;;;;;;3.13;1.33;;;;;;;;;;5032238;28;20045;-67
2022/08/19 11:35:05;;;;;;;3.83;1.67;;;;;;;;;;5032439;28;20103;-67
2022/08/19 11:37:37;;;;;;;5.50;1.52;;;;;;;;;;5032247;28;20050;-67
2022/08/19 11:40:05;;;;;;;5.30;1.50;;;;;;;;;;5032498;28;20049;-67
2022/08/19 11:45:16;;;;;;;6.33;1.50;;;;;;;;;;5032415;28;20064;-67
2022/08/19 11:47:43;;;;;;;;;;;;;;;;;;5032594;28;20045;-66
2022/08/19 11:50:10;;;;;;;6.78;1.60;;;;;;;;;;5032018;28;19967;-67
2022/08/19 11:52:36;;;;;;;4.95;1.40;;;;;;;;;;5031946;28;20563;-66
2022/08/19 11:55:03;;;;;;;3.70;1.27;;;;;;;;;;5031887;28;20088;-67
2022/08/19 11:57:29;;;;;;;;;;;;;;;;;;5032572;28;20087;-67
2022/08/19 11:59:56;;;;;;;;;;;;;;;;;;5032461;28;19920;-67
2022/08/19 12:02:23;;;;;;;5.45;1.33;;;;;;;;;;5032149;28;20022;-67
2022/08/19 12:04:49;;;;;;;4.88;1.45;;;;;;;;;;5032012;28;20041;-67
2022/08/19 12:07:16;;;;;;;4.60;1.45;;;;;;;;;;5031698;28;20054;-67
2022/08/19 12:09:42;;;;;;;3.92;1.23;;;;;;;;;;5031613;28;20489;-67
2022/08/19 12:12:11;;;;;;;6.20;1.50;;;;;;;;;;5031653;28;20057;-67
2022/08/19 12:14:38;;;;;;;7.15;1.73;;;;;;;;;;5031300;28;20057;-67
2022/08/19 12:17:07;;;;;;;5.30;1.40;;;;;;;;;;5031809;28;20072;-67
2022/08/19 12:19:35;;;;;;;5.18;1.35;;;;;;;;;;5031755;28;20137;-67
2022/08/19 12:22:03;;;;;;;4.10;1.35;;;;;;;;;;5031708;28;20572;-67
2022/08/19 12:24:32;;;;;;;4.05;1.13;;;;;;;;;;5031553;28;20073;-67
2022/08/19 12:27:01;;;;;;;4.65;1.20;;;;;;;;;;5031422;28;20528;-67
2022/08/19 12:29:29;;;;;;;3.60;1.27;;;;;;;;;;5031699;28;20135;-67
2022/08/19 12:32:00;;;;;;;4.85;1.27;;;;;;;;;;5031578;28;20072;-67
2022/08/19 12:34:29;;;;;;;4.30;1.27;;;;;;;;;;5030360;28;20061;-67
2022/08/19 12:36:57;;;;;;;7.85;1.20;;;;;;;;;;5031378;28;20509;-66
2022/08/19 12:39:24;;;;;;;4.35;1.30;;;;;;;;;;5031528;28;20383;-67
2022/08/19 12:41:51;;;;;;;;;;;;;;;;;;5031810;28;20509;-67
2022/08/19 12:44:20;;;;;;;7.45;1.65;;;;;;;;;;5031242;28;19921;-66
2022/08/19 12:46:55;;;;;;;4.95;1.10;;;;;;;;;;5031388;28;20049;-66
2022/08/19 12:49:21;;;;;;;5.68;1.35;;;;;;;;;;5031546;28;20049;-66
2022/08/19 12:52:08;;;;;;;4.05;1.25;;;;;;;;;;5031546;28;20383;-66
2022/08/19 12:54:35;;;;;;;3.20;1.00;;;;;;;;;;5031459;28;20099;-67
2022/08/19 12:57:09;;;;;;;4.90;1.27;;;;;;;;;;5030540;28;20045;-67
2022/08/19 12:59:36;;;;;;;6.18;1.50;;;;;;;;;;5031120;28;20042;-66
2022/08/19 13:02:05;;;;;;;7.70;1.33;;;;;;;;;;5031340;28;20513;-66
2022/08/19 13:04:34;;;;;;;5.88;1.63;;;;;;;;;;5029876;28;20069;-66
2022/08/19 13:07:02;;;;;;;6.00;1.33;;;;;;;;;;5031126;28;20489;-66
2022/08/19 13:09:28;;;;;;;5.00;1.40;;;;;;;;;;5031479;28;20485;-66
2022/08/19 13:11:56;;;;;;;;;;;;;;;;;;5031751;28;20049;-67
2022/08/19 13:14:23;;;;;;;4.13;1.25;;;;;;;;;;5031221;28;19925;-67
2022/08/19 13:16:52;;;;;;;6.38;1.65;;;;;;;;;;5031286;28;20057;-67
2022/08/19 13:19:20;;;;;;;8.57;1.48;;;;;;;;;;5031275;28;20054;-66
2022/08/19 13:21:49;;;;;;;5.32;1.67;;;;;;;;;;5030973;28;20056;-66
2022/08/19 13:24:15;;;;;;;6.57;1.70;;;;;;;;;;5030109;28;20450;-67
2022/08/19 13:26:43;;;;;;;4.38;1.58;;;;;;;;;;5031711;28;20042;-67
2022/08/19 13:34:46;;;;;;;6.20;1.52;;;;;;;;;;5034526;28;20088;-67
2022/08/19 13:37:12;;;;;;;4.80;1.58;;;;;;;;;;5034409;28;20077;-66
2022/08/19 13:39:39;;;;;;;4.55;1.50;;;;;;;;;;5034678;28;20091;-66
2022/08/19 13:42:07;;;;;;;5.38;1.63;;;;;;;;;;5033067;28;20053;-67
2022/08/19 13:44:33;;;;;;;6.85;1.55;;;;;;;;;;5034542;28;20143;-66
2022/08/19 13:47:05;;;;;;;6.60;1.67;;;;;;;;;;5034679;28;20099;-67
2022/08/19 13:49:31;;;;;;;7.88;1.65;;;;;;;;;;5034305;28;20516;-67
2022/08/19 13:51:58;;;;;;;7.50;1.85;;;;;;;;;;5033211;28;20049;-67
2022/08/19 13:54:24;;;;;;;4.10;1.02;;;;;;;;;;5034298;28;20465;-67
2022/08/19 13:56:51;;;;;;;7.47;1.60;;;;;;;;;;5034407;28;20080;-67
2022/08/19 13:59:18;;;;;;;4.65;1.60;;;;;;;;;;5033823;28;20085;-66
2022/08/19 14:01:45;;;;;;;5.78;1.30;;;;;;;;;;5034037;28;20103;-67
2022/08/19 14:04:11;;;;;;;6.22;1.40;;;;;;;;;;5034141;28;20049;-67
2022/08/19 14:06:38;;;;;;;4.90;1.30;;;;;;;;;;5034130;28;20103;-66
2022/08/19 14:09:05;;;;;;;4.28;1.10;;;;;;;;;;5033952;28;20088;-66
2022/08/19 14:11:31;;;;;;;4.55;1.20;;;;;;;;;;5033959;28;20053;-66
2022/08/19 14:13:58;;;;;;;3.47;1.23;;;;;;;;;;5033801;28;20053;-67
2022/08/19 14:16:24;;;;;;;4.45;1.25;;;;;;;;;;5033552;28;20501;-67
2022/08/19 14:18:51;;;;;;;4.05;1.48;;;;;;;;;;5033763;28;20046;-67
2022/08/19 14:21:20;;;;;;;4.57;1.45;;;;;;;;;;5033866;28;20103;-66
2022/08/19 14:23:46;;;;;;;4.55;1.17;;;;;;;;;;5033713;28;20083;-67
2022/08/19 14:26:15;;;;;;;5.85;1.27;;;;;;;;;;5033870;28;20073;-67
2022/08/19 14:28:42;;;;;;;6.68;1.27;;;;;;;;;;5033769;28;20111;-67
2022/08/19 14:31:12;;;;;;;4.35;1.13;;;;;;;;;;5033744;28;20053;-67
2022/08/19 14:33:40;;;;;;;5.45;1.10;;;;;;;;;;5033671;28;20049;-66
2022/08/19 14:36:06;;;;;;;4.32;1.17;;;;;;;;;;5033713;28;20053;-66
2022/08/19 14:38:33;;;;;;;5.00;1.35;;;;;;;;;;5033107;28;20046;-67
2022/08/19 14:41:05;;;;;;;4.03;1.10;;;;;;;;;;5033264;28;20513;-66
2022/08/19 14:43:32;;;;;;;3.20;0.90;;;;;;;;;;5033302;28;20081;-67
2022/08/19 14:45:59;;;;;;;4.10;0.90;;;;;;;;;;5033038;28;20077;-67
2022/08/19 14:48:26;;;;;;;3.78;1.40;;;;;;;;;;5033004;28;20071;-66
2022/08/19 14:50:54;;;;;;;3.10;0.90;;;;;;;;;;5033007;28;20097;-66
2022/08/19 14:53:21;;;;;;;3.25;1.00;;;;;;;;;;5033272;28;20096;-66
2022/08/19 14:55:47;;;;;;;3.95;0.80;;;;;;;;;;5032958;28;20493;-67
2022/08/19 14:58:14;;;;;;;3.22;0.93;;;;;;;;;;5031921;28;20056;-67
2022/08/19 15:00:56;;;;;;;3.97;1.23;;;;;;;;;;5032996;28;20409;-68
2022/08/19 15:03:22;;;;;;;2.92;0.70;;;;;;;;;;5031827;28;20448;-67
2022/08/19 15:05:49;;;;;;;2.17;0.70;;;;;;;;;;5032993;28;20379;-67
2022/08/19 15:08:15;;;;;;;3.45;0.80;;;;;;;;;;5032726;28;20127;-66
2022/08/19 15:10:42;;;;;;;2.17;0.60;;;;;;;;;;5032908;28;20095;-67
2022/08/19 15:13:09;;;;;;;2.88;0.90;;;;;;;;;;5033009;28;20045;-67
2022/08/19 15:15:35;;;;;;;1.85;0.50;;;;;;;;;;5032489;28;20057;-66
2022/08/19 15:18:02;;;;;;;3.10;0.80;;;;;;;;;;5032902;28;20104;-66
2022/08/19 15:20:29;;;;;;;1.20;0.47;;;;;;;;;;5031232;28;20544;-66
2022/08/19 15:22:55;;;;;;;4.35;0.52;;;;;;;;;;5031285;28;20111;-66
2022/08/19 15:25:22;;;;;;;3.55;0.70;;;;;;;;;;5032421;28;20132;-66